Time;durP1;ratioP1;P1;durP2;ratioP2;P2;SDS_P1;SDS_P2;PMS_P1;PMS_P2;Temp;Humidity;BMP_temperature;BMP_pressure;BME280_temperature;BME280_humidity;BME280_pressure;Samples;Min_cycle;Max_cycle;Signal;HPM_P1;HPM_P2
2023/07/06 00:02:50;;;;;;;3.65;2.90;;;;;;;14.44;100.00;100531.44;6142501;28;20091;-90
2023/07/06 00:05:52;;;;;;;4.10;2.70;;;;;;;14.67;100.00;100531.06;6139868;28;20098;-90
2023/07/06 00:08:54;;;;;;;6.85;2.80;;;;;;;14.79;100.00;100529.88;6141687;28;20039;-90
2023/07/06 00:11:56;;;;;;;5.38;2.95;;;;;;;14.78;100.00;100528.25;6153871;28;20047;-90
2023/07/06 00:14:57;;;;;;;3.95;2.70;;;;;;;14.79;100.00;100526.47;6155227;28;20053;-91
2023/07/06 00:18:03;;;;;;;3.85;2.90;;;;;;;14.82;100.00;100520.94;6140111;28;20051;-91
2023/07/06 00:21:05;;;;;;;5.10;2.95;;;;;;;14.83;100.00;100525.19;6148045;28;20042;-91
2023/07/06 00:24:07;;;;;;;4.28;2.90;;;;;;;14.89;100.00;100524.59;6139482;28;20054;-91
2023/07/06 00:27:09;;;;;;;3.78;2.78;;;;;;;14.92;100.00;100526.09;6143262;28;20530;-91
2023/07/06 00:30:18;;;;;;;3.15;2.85;;;;;;;15.02;100.00;100524.22;6139910;28;20043;-91
2023/07/06 00:33:23;;;;;;;4.18;3.60;;;;;;;15.10;100.00;100523.47;6138119;28;20035;-91
2023/07/06 00:36:28;;;;;;;5.20;2.78;;;;;;;15.08;100.00;100523.63;6137969;28;20075;-91
2023/07/06 00:39:30;;;;;;;3.72;2.90;;;;;;;15.08;100.00;100524.44;6137522;28;20229;-90
2023/07/06 00:42:32;;;;;;;5.13;3.00;;;;;;;15.13;100.00;100529.22;6154020;28;20055;-91
2023/07/06 00:45:34;;;;;;;3.35;2.97;;;;;;;15.11;100.00;100525.13;6139948;28;20047;-91
2023/07/06 00:48:39;;;;;;;3.58;2.70;;;;;;;15.19;100.00;100536.41;6142691;28;20051;-90
2023/07/06 00:51:44;;;;;;;4.38;2.72;;;;;;;15.15;100.00;100535.06;6142435;28;20550;-90
2023/07/06 00:54:46;;;;;;;5.03;2.90;;;;;;;15.17;100.00;100538.34;6135346;28;20146;-91
2023/07/06 00:57:51;;;;;;;4.60;3.13;;;;;;;15.16;100.00;100549.75;6142919;28;20055;-90
2023/07/06 01:00:57;;;;;;;5.10;3.05;;;;;;;15.14;100.00;100543.06;6144328;28;20059;-91
2023/07/06 01:04:01;;;;;;;3.90;2.92;;;;;;;15.17;100.00;100555.78;6147719;28;20424;-91
2023/07/06 01:07:04;;;;;;;5.53;3.42;;;;;;;15.23;100.00;100550.81;6141703;28;20648;-91
2023/07/06 01:10:08;;;;;;;5.72;3.63;;;;;;;15.18;100.00;100553.06;6137580;28;20465;-91
2023/07/06 01:13:11;;;;;;;3.95;3.08;;;;;;;15.14;100.00;100556.91;6121928;28;20043;-91
2023/07/06 01:16:21;;;;;;;7.15;4.00;;;;;;;15.18;100.00;100560.88;6142432;28;20047;-91
2023/07/06 01:20:03;;;;;;;5.35;3.40;;;;;;;15.12;100.00;100563.25;6153759;28;20055;-91
2023/07/06 01:23:36;;;;;;;4.05;3.20;;;;;;;15.15;100.00;100563.75;6131599;28;20043;-91
2023/07/06 01:26:46;;;;;;;4.85;3.60;;;;;;;15.16;100.00;100559.38;6143438;28;20043;-91
2023/07/06 01:29:57;;;;;;;;;;;;;;;15.23;100.00;100550.81;6137164;28;20473;-91
2023/07/06 01:33:07;;;;;;;;;;;;;;;15.22;100.00;100553.56;6139555;28;19931;-90
2023/07/06 01:36:23;;;;;;;4.23;3.60;;;;;;;15.19;100.00;100557.28;6141776;28;20315;-91
2023/07/06 01:39:28;;;;;;;4.35;3.65;;;;;;;15.16;100.00;100560.19;6145107;28;20282;-91
2023/07/06 01:42:31;;;;;;;5.38;3.67;;;;;;;15.13;100.00;100554.44;6137521;28;20042;-91
2023/07/06 01:45:35;;;;;;;5.03;3.63;;;;;;;15.11;100.00;100559.81;6141059;28;20043;-91
2023/07/06 01:48:37;;;;;;;4.18;3.63;;;;;;;15.15;100.00;100566.38;6144349;28;20051;-91
2023/07/06 01:52:14;;;;;;;5.38;3.70;;;;;;;15.10;100.00;100567.78;6146962;28;20063;-91
2023/07/06 01:55:38;;;;;;;5.05;4.00;;;;;;;15.03;100.00;100564.94;6111171;29;20059;-91
2023/07/06 01:58:45;;;;;;;5.68;4.07;;;;;;;15.01;100.00;100567.72;6098712;29;20553;-91
2023/07/06 02:02:00;;;;;;;6.82;4.57;;;;;;;15.00;100.00;100571.28;6110780;29;20603;-91
2023/07/06 02:05:03;;;;;;;5.40;4.25;;;;;;;15.02;100.00;100569.34;6095721;29;20178;-91
2023/07/06 02:08:07;;;;;;;6.35;4.13;;;;;;;14.88;100.00;100569.03;6110610;29;20138;-91
2023/07/06 02:11:17;;;;;;;6.25;4.28;;;;;;;14.82;100.00;100573.06;6076874;29;20544;-91
2023/07/06 02:14:20;;;;;;;5.10;4.28;;;;;;;14.72;100.00;100565.31;6111287;29;20056;-91
2023/07/06 02:17:22;;;;;;;6.13;4.32;;;;;;;14.53;100.00;100573.22;6091247;29;20044;-91
2023/07/06 02:20:24;;;;;;;5.30;4.20;;;;;;;14.43;100.00;100576.72;6086235;29;20434;-91
2023/07/06 02:23:26;;;;;;;6.88;4.05;;;;;;;14.36;100.00;100585.22;6109975;29;20043;-91
2023/07/06 02:26:28;;;;;;;5.15;4.07;;;;;;;14.32;100.00;100583.88;6088790;29;20134;-91
2023/07/06 02:29:29;;;;;;;4.13;3.55;;;;;;;14.26;100.00;100590.50;6109010;29;20700;-91
2023/07/06 02:32:32;;;;;;;7.43;4.00;;;;;;;14.29;100.00;100586.78;6115841;28;20055;-91
2023/07/06 02:35:34;;;;;;;5.90;3.80;;;;;;;14.22;100.00;100591.72;6144486;28;20039;-90
2023/07/06 02:38:37;;;;;;;4.53;3.50;;;;;;;14.15;100.00;100585.44;6133290;28;20413;-91
2023/07/06 02:41:38;;;;;;;4.65;3.58;;;;;;;14.01;100.00;100578.91;6138123;28;20043;-91
2023/07/06 02:44:41;;;;;;;4.90;3.70;;;;;;;13.93;100.00;100589.22;6141745;28;20046;-91
2023/07/06 02:47:42;;;;;;;4.70;3.83;;;;;;;13.85;100.00;100597.72;6141276;28;20043;-91
2023/07/06 02:50:51;;;;;;;5.70;4.03;;;;;;;13.76;100.00;100590.75;6154231;28;20047;-91
2023/07/06 02:53:53;;;;;;;5.57;3.80;;;;;;;13.68;100.00;100594.06;6153797;28;20042;-90
2023/07/06 02:57:00;;;;;;;7.30;3.83;;;;;;;13.64;100.00;100600.53;6137746;28;20055;-91
2023/07/06 03:00:09;;;;;;;5.72;3.40;;;;;;;13.57;100.00;100592.44;6141287;28;20043;-91
2023/07/06 03:03:10;;;;;;;5.43;3.75;;;;;;;13.50;100.00;100601.75;6141523;28;20042;-91
2023/07/06 03:06:12;;;;;;;5.95;4.03;;;;;;;13.47;100.00;100596.84;6149954;28;20047;-91
2023/07/06 03:09:14;;;;;;;5.25;4.15;;;;;;;13.45;100.00;100600.53;6151374;28;20070;-90
2023/07/06 03:12:16;;;;;;;5.70;4.65;;;;;;;13.41;100.00;100602.56;6148037;28;20043;-91
2023/07/06 03:15:18;;;;;;;7.15;5.03;;;;;;;13.46;100.00;100597.78;6133342;28;20043;-91
2023/07/06 03:18:20;;;;;;;9.82;6.80;;;;;;;13.70;100.00;100599.94;6151470;28;20058;-91
2023/07/06 03:21:22;;;;;;;8.60;7.70;;;;;;;13.69;100.00;100593.13;6156002;28;20176;-91
2023/07/06 03:24:24;;;;;;;9.15;7.20;;;;;;;13.72;100.00;100595.44;6135495;28;20063;-91
2023/07/06 03:27:26;;;;;;;10.63;7.75;;;;;;;13.69;100.00;100603.53;6139597;28;20045;-91
2023/07/06 03:30:29;;;;;;;11.57;8.45;;;;;;;13.72;100.00;100605.84;6141717;28;20501;-91
2023/07/06 03:33:31;;;;;;;14.50;8.75;;;;;;;13.78;100.00;100604.44;6151120;28;20039;-91
2023/07/06 03:36:34;;;;;;;11.02;8.55;;;;;;;13.76;100.00;100607.22;6157578;28;20078;-91
2023/07/06 03:39:36;;;;;;;13.32;9.13;;;;;;;13.80;100.00;100605.13;6143511;28;20055;-91
2023/07/06 03:42:39;;;;;;;15.73;9.82;;;;;;;13.87;100.00;100616.63;6147473;28;20397;-91
2023/07/06 03:45:47;;;;;;;14.30;9.63;;;;;;;13.90;100.00;100615.53;6141802;28;20055;-91
2023/07/06 03:48:49;;;;;;;14.35;10.35;;;;;;;13.83;100.00;100615.25;6136332;28;20063;-91
2023/07/06 03:51:51;;;;;;;17.67;10.50;;;;;;;13.87;100.00;100623.63;6141244;28;20556;-91
2023/07/06 03:54:53;;;;;;;15.82;11.05;;;;;;;13.88;100.00;100631.28;6141874;28;20043;-92
2023/07/06 03:57:57;;;;;;;17.63;11.15;;;;;;;13.86;100.00;100617.56;6152079;28;20450;-91
2023/07/06 04:01:06;;;;;;;18.02;11.32;;;;;;;13.89;100.00;100613.91;6154725;28;20535;-91
2023/07/06 04:04:08;;;;;;;18.52;11.15;;;;;;;13.95;100.00;100631.53;6141270;28;20530;-91
2023/07/06 04:07:10;;;;;;;16.08;10.98;;;;;;;13.92;100.00;100617.03;6151872;28;20395;-90
2023/07/06 04:10:12;;;;;;;14.50;10.48;;;;;;;13.97;100.00;100617.44;6141404;28;20551;-91
2023/07/06 04:13:14;;;;;;;15.20;10.80;;;;;;;13.97;100.00;100627.84;6140736;28;20103;-90
2023/07/06 04:16:17;;;;;;;13.48;9.93;;;;;;;14.10;100.00;100630.13;6147941;28;20031;-91
2023/07/06 04:19:19;;;;;;;14.50;9.57;;;;;;;14.24;100.00;100638.47;6140728;28;20075;-91
2023/07/06 04:22:20;;;;;;;13.63;9.27;;;;;;;14.30;100.00;100640.50;6148560;28;20255;-91
2023/07/06 04:25:29;;;;;;;10.52;8.73;;;;;;;14.28;100.00;100645.00;6152255;28;20039;-91
2023/07/06 04:28:32;;;;;;;10.38;7.88;;;;;;;14.36;100.00;100645.09;6142282;28;20076;-91
2023/07/06 04:31:34;;;;;;;9.93;7.05;;;;;;;14.38;100.00;100643.19;6144967;28;20390;-91
2023/07/06 04:34:39;;;;;;;9.65;7.35;;;;;;;14.51;100.00;100646.31;6145979;28;20035;-92
2023/07/06 04:37:41;;;;;;;9.48;7.32;;;;;;;14.57;100.00;100647.53;6142065;28;20122;-91
2023/07/06 04:40:43;;;;;;;10.25;7.32;;;;;;;14.54;100.00;100651.25;6140554;28;20043;-91
2023/07/06 04:43:44;;;;;;;9.88;7.38;;;;;;;14.60;100.00;100650.66;6141143;28;20038;-92
2023/07/06 04:46:47;;;;;;;10.10;7.03;;;;;;;14.67;100.00;100650.91;6140017;28;20049;-92
2023/07/06 04:49:55;;;;;;;9.85;7.35;;;;;;;14.63;100.00;100654.75;6121190;28;20044;-91
2023/07/06 04:53:01;;;;;;;8.55;6.28;;;;;;;14.70;100.00;100650.63;6141788;28;20051;-91
2023/07/06 04:56:03;;;;;;;10.23;6.97;;;;;;;14.71;100.00;100654.88;6130270;28;20519;-91
2023/07/06 04:59:05;;;;;;;10.75;6.88;;;;;;;14.73;100.00;100662.53;6140492;28;20053;-92
2023/07/06 05:02:06;;;;;;;9.85;6.70;;;;;;;14.81;100.00;100665.25;6135862;28;20091;-92
2023/07/06 05:05:17;;;;;;;11.60;6.40;;;;;;;14.83;100.00;100660.69;6139152;28;21376;-92
2023/07/06 05:08:21;;;;;;;9.65;6.00;;;;;;;14.96;100.00;100663.00;6141645;28;20130;-92
2023/07/06 05:11:25;;;;;;;7.53;5.30;;;;;;;14.98;100.00;100661.03;6141212;28;20043;-91
2023/07/06 05:14:26;;;;;;;8.05;5.25;;;;;;;15.02;100.00;100660.59;6141796;28;20043;-91
2023/07/06 05:17:28;;;;;;;6.10;4.63;;;;;;;15.05;100.00;100667.31;6141416;28;20058;-91
2023/07/06 05:20:31;;;;;;;9.00;4.97;;;;;;;15.12;100.00;100668.34;6139648;28;20631;-91
2023/07/06 05:23:33;;;;;;;8.35;5.28;;;;;;;15.19;100.00;100669.41;6140734;28;20055;-91
2023/07/06 05:26:35;;;;;;;7.93;4.60;;;;;;;15.23;100.00;100670.75;6139853;28;20397;-92
2023/07/06 05:29:37;;;;;;;8.85;5.07;;;;;;;15.29;100.00;100666.72;6136925;28;20049;-92
2023/07/06 05:32:39;;;;;;;6.55;4.28;;;;;;;15.35;100.00;100666.13;6143363;28;20046;-92
2023/07/06 05:35:42;;;;;;;5.13;4.32;;;;;;;15.34;100.00;100672.31;6139456;28;20153;-93
2023/07/06 05:38:43;;;;;;;7.63;4.53;;;;;;;15.40;100.00;100681.34;6128511;28;20055;-92
2023/07/06 05:41:47;;;;;;;6.00;3.90;;;;;;;15.48;100.00;100679.63;6153090;28;20053;-93
2023/07/06 05:44:50;;;;;;;8.05;4.25;;;;;;;15.57;100.00;100683.13;6141144;28;20497;-92
2023/07/06 05:47:52;;;;;;;7.18;3.90;;;;;;;15.64;100.00;100680.75;6127208;28;20520;-91
2023/07/06 05:50:56;;;;;;;6.32;3.90;;;;;;;15.66;100.00;100679.63;6129835;28;20047;-92
2023/07/06 05:53:58;;;;;;;6.22;4.10;;;;;;;15.66;100.00;100684.84;6137131;28;20490;-92
2023/07/06 05:57:06;;;;;;;5.13;3.50;;;;;;;15.68;100.00;100692.53;6139240;28;20526;-92
2023/07/06 06:00:13;;;;;;;7.13;3.53;;;;;;;15.69;100.00;100694.16;6141005;28;20047;-92
2023/07/06 06:03:16;;;;;;;5.05;3.78;;;;;;;15.75;100.00;100695.38;6149914;28;20039;-91
2023/07/06 06:06:27;;;;;;;8.05;4.50;;;;;;;15.85;100.00;100696.94;6143166;28;20043;-91
2023/07/06 06:09:28;;;;;;;;;;;;;;;15.93;100.00;100706.63;6140690;28;20053;-92
2023/07/06 06:12:31;;;;;;;8.98;5.63;;;;;;;15.98;100.00;100707.00;6149236;28;19980;-93
2023/07/06 06:15:33;;;;;;;10.38;6.28;;;;;;;16.04;100.00;100716.81;6145350;28;20413;-92
2023/07/06 06:18:39;;;;;;;8.85;6.38;;;;;;;16.07;100.00;100720.91;6144704;28;20101;-91
2023/07/06 06:21:44;;;;;;;8.07;5.68;;;;;;;16.15;100.00;100724.41;6144930;28;20049;-91
2023/07/06 06:24:46;;;;;;;9.93;6.28;;;;;;;16.20;100.00;100725.72;6145143;28;20043;-91
2023/07/06 06:27:48;;;;;;;6.63;5.85;;;;;;;16.17;100.00;100721.63;6152409;28;20039;-92
2023/07/06 06:30:53;;;;;;;7.28;5.47;;;;;;;16.24;100.00;100727.06;6137463;28;20051;-92
2023/07/06 06:33:55;;;;;;;6.25;5.15;;;;;;;16.24;100.00;100732.31;6144342;28;20043;-92
2023/07/06 06:36:58;;;;;;;8.60;5.50;;;;;;;16.31;100.00;100735.94;6132214;28;20047;-91
2023/07/06 06:40:01;;;;;;;6.95;5.28;;;;;;;16.32;100.00;100735.81;6145076;28;20544;-92
2023/07/06 06:43:04;;;;;;;9.02;5.22;;;;;;;16.35;100.00;100737.28;6150199;28;20057;-92
2023/07/06 06:46:08;;;;;;;7.10;4.55;;;;;;;16.41;100.00;100738.47;6143256;28;20460;-92
2023/07/06 06:49:10;;;;;;;6.18;4.25;;;;;;;16.59;100.00;100749.66;6144057;28;20059;-92
2023/07/06 06:52:12;;;;;;;10.60;4.97;;;;;;;16.65;100.00;100741.22;6144367;28;20035;-92
2023/07/06 06:55:14;;;;;;;5.50;4.78;;;;;;;16.62;100.00;100746.75;6144817;28;20043;-92
2023/07/06 06:58:16;;;;;;;9.90;4.57;;;;;;;16.66;100.00;100742.03;6151720;28;20047;-92
2023/07/06 07:01:17;;;;;;;8.00;4.20;;;;;;;16.87;100.00;100750.34;6151906;28;20074;-92
2023/07/06 07:04:20;;;;;;;6.43;3.78;;;;;;;16.99;100.00;100754.31;6143634;28;20054;-94
2023/07/06 07:07:22;;;;;;;5.38;3.15;;;;;;;17.05;100.00;100755.47;6140533;28;20602;-92
2023/07/06 07:10:23;;;;;;;5.07;3.67;;;;;;;17.18;100.00;100758.47;6156322;28;20047;-91
2023/07/06 07:13:26;;;;;;;4.85;3.80;;;;;;;17.42;100.00;100757.72;6156201;28;20035;-92
2023/07/06 07:16:28;;;;;;;4.63;3.50;;;;;;;17.76;100.00;100753.34;6143843;28;20065;-92
2023/07/06 07:19:30;;;;;;;6.25;3.88;;;;;;;18.10;100.00;100766.31;6143775;28;20058;-91
2023/07/06 07:22:34;;;;;;;4.78;3.38;;;;;;;18.41;100.00;100765.63;6154463;28;20109;-92
2023/07/06 07:25:41;;;;;;;4.88;3.00;;;;;;;18.61;100.00;100772.16;6137606;28;20051;-91
2023/07/06 07:28:43;;;;;;;4.53;3.22;;;;;;;18.80;100.00;100776.22;6143448;28;20062;-92
2023/07/06 07:31:47;;;;;;;4.65;2.92;;;;;;;18.92;100.00;100768.81;6126539;28;20050;-92
2023/07/06 07:34:50;;;;;;;4.72;2.70;;;;;;;18.75;100.00;100768.00;6143286;28;20794;-91
2023/07/06 07:37:52;;;;;;;4.15;2.72;;;;;;;18.32;100.00;100774.50;6141606;28;20051;-92
2023/07/06 07:40:59;;;;;;;6.10;2.90;;;;;;;17.91;100.00;100779.72;6143570;28;20077;-92
2023/07/06 07:44:01;;;;;;;4.70;2.90;;;;;;;17.74;100.00;100778.84;6142663;28;20039;-92
2023/07/06 07:47:03;;;;;;;4.85;2.58;;;;;;;17.76;100.00;100775.13;6142973;28;20043;-92
2023/07/06 07:50:06;;;;;;;5.60;2.70;;;;;;;17.80;100.00;100779.06;6151864;28;20039;-91
2023/07/06 07:53:08;;;;;;;4.65;2.97;;;;;;;17.86;100.00;100780.22;6148601;28;20557;-92
2023/07/06 07:56:13;;;;;;;4.00;2.90;;;;;;;17.96;100.00;100778.28;6153600;28;20417;-92
2023/07/06 07:59:15;;;;;;;6.22;2.55;;;;;;;18.01;100.00;100775.16;6148789;28;20058;-91
2023/07/06 08:02:18;;;;;;;4.55;2.58;;;;;;;17.97;100.00;100776.47;6141763;28;20039;-93
2023/07/06 08:05:19;;;;;;;3.70;2.38;;;;;;;18.02;100.00;100782.03;6142699;28;20515;-91
2023/07/06 08:08:22;;;;;;;5.32;2.60;;;;;;;18.14;100.00;100778.13;6142493;28;20050;-91
2023/07/06 08:11:24;;;;;;;3.97;2.50;;;;;;;18.40;100.00;100774.47;6152688;28;20054;-91
2023/07/06 08:14:41;;;;;;;5.65;2.42;;;;;;;18.69;100.00;100784.44;6140934;28;20046;-91
2023/07/06 08:17:43;;;;;;;8.00;2.70;;;;;;;19.00;100.00;100781.88;6141440;28;20054;-92
2023/07/06 08:20:47;;;;;;;4.15;2.25;;;;;;;19.29;100.00;100788.34;6142340;28;20051;-91
2023/07/06 08:24:09;;;;;;;2.20;1.90;;;;;;;19.57;100.00;100801.78;6148515;28;20055;-92
2023/07/06 08:27:11;;;;;;;3.75;2.08;;;;;;;19.77;100.00;100794.31;6157650;28;20401;-92
2023/07/06 08:30:20;;;;;;;2.65;2.45;;;;;;;19.82;100.00;100786.72;6143568;28;20544;-92
2023/07/06 08:33:22;;;;;;;2.53;2.03;;;;;;;20.04;100.00;100792.97;6139595;28;20036;-91
2023/07/06 08:36:25;;;;;;;3.90;2.20;;;;;;;20.21;100.00;100796.28;6155945;28;20137;-92
2023/07/06 08:39:27;;;;;;;2.90;2.20;;;;;;;20.35;100.00;100790.25;6141727;28;20039;-91
2023/07/06 08:42:30;;;;;;;2.20;1.95;;;;;;;20.62;100.00;100796.75;6140107;28;20137;-91
2023/07/06 08:45:43;;;;;;;5.40;2.30;;;;;;;20.69;100.00;100790.75;6139361;28;20047;-91
2023/07/06 08:48:46;;;;;;;4.75;2.20;;;;;;;20.63;100.00;100800.19;6139596;28;20347;-91
2023/07/06 08:51:48;;;;;;;3.90;2.30;;;;;;;20.59;100.00;100794.44;6141538;28;20549;-90
2023/07/06 08:54:52;;;;;;;4.40;2.25;;;;;;;20.55;100.00;100787.94;6124473;29;20043;-92
2023/07/06 08:57:54;;;;;;;4.15;2.28;;;;;;;20.72;100.00;100793.84;6140060;28;20129;-91
2023/07/06 09:01:10;;;;;;;6.40;2.50;;;;;;;20.90;100.00;100801.38;6141473;28;20155;-92
2023/07/06 09:04:16;;;;;;;2.25;1.83;;;;;;;21.19;100.00;100799.69;6139586;28;20042;-91
2023/07/06 09:07:45;;;;;;;3.45;2.17;;;;;;;21.61;100.00;100804.25;6140229;28;20046;-91
2023/07/06 09:10:49;;;;;;;3.33;1.90;;;;;;;21.61;100.00;100803.44;6138192;28;20070;-91
2023/07/06 09:13:55;;;;;;;3.85;1.73;;;;;;;21.40;100.00;100806.88;6139079;28;20070;-91
2023/07/06 09:16:57;;;;;;;3.47;1.55;;;;;;;21.44;100.00;100802.84;6140699;28;20046;-92
2023/07/06 09:19:59;;;;;;;4.43;1.65;;;;;;;21.52;100.00;100805.38;6149249;28;20049;-92
2023/07/06 09:23:05;;;;;;;4.13;1.70;;;;;;;21.53;100.00;100801.75;6140981;28;20067;-92
2023/07/06 09:26:08;;;;;;;2.45;1.77;;;;;;;21.57;100.00;100799.56;6134995;28;20050;-92
2023/07/06 09:29:37;;;;;;;2.35;1.73;;;;;;;21.77;100.00;100805.03;6139885;28;20042;-92
2023/07/06 09:32:39;;;;;;;2.75;1.70;;;;;;;21.97;100.00;100811.31;6140425;28;20047;-92
2023/07/06 09:35:41;;;;;;;4.18;1.70;;;;;;;22.03;100.00;100812.34;6142565;28;20047;-92
2023/07/06 09:38:45;;;;;;;3.60;1.75;;;;;;;22.20;100.00;100811.13;6138431;28;20089;-91
2023/07/06 09:41:47;;;;;;;3.88;1.48;;;;;;;22.39;100.00;100809.66;6139710;28;20043;-92
2023/07/06 09:44:50;;;;;;;2.58;1.48;;;;;;;22.47;100.00;100812.13;6140635;28;20078;-91
2023/07/06 09:48:07;;;;;;;3.20;1.45;;;;;;;22.55;100.00;100827.81;6145736;28;20054;-90
2023/07/06 09:51:13;;;;;;;4.15;1.67;;;;;;;22.62;100.00;100822.59;6163756;28;20390;-91
2023/07/06 09:54:18;;;;;;;2.85;1.50;;;;;;;22.92;100.00;100823.16;6146040;28;20155;-91
2023/07/06 09:57:24;;;;;;;2.95;1.70;;;;;;;23.06;100.00;100812.72;6148680;28;20513;-92
2023/07/06 10:00:39;;;;;;;2.72;1.50;;;;;;;23.04;100.00;100820.81;6144505;28;20114;-92
2023/07/06 10:03:57;;;;;;;1.58;1.48;;;;;;;22.92;100.00;100828.44;6139989;28;20051;-92
2023/07/06 10:07:14;;;;;;;5.40;1.60;;;;;;;22.91;100.00;100823.38;6141935;28;20042;-91
2023/07/06 10:10:28;;;;;;;2.92;1.55;;;;;;;22.77;100.00;100819.84;6148752;28;20166;-93
2023/07/06 10:13:49;;;;;;;3.53;1.80;;;;;;;22.67;100.00;100820.19;6149058;28;20039;-93
2023/07/06 10:16:59;;;;;;;3.08;1.55;;;;;;;22.64;100.00;100814.50;6146583;28;20370;-93
2023/07/06 10:20:17;;;;;;;3.17;1.73;;;;;;;22.67;100.00;100811.47;6148393;28;20587;-92
2023/07/06 10:23:54;;;;;;;2.88;1.40;;;;;;;22.71;100.00;100824.06;6160277;28;20121;-92
2023/07/06 10:27:01;;;;;;;4.85;1.45;;;;;;;23.10;100.00;100812.09;6156757;28;20043;-92
2023/07/06 10:30:20;;;;;;;1.42;1.27;;;;;;;23.58;100.00;100817.38;6155871;28;20046;-92
2023/07/06 10:33:55;;;;;;;2.63;1.50;;;;;;;24.00;100.00;100812.78;6165944;28;20038;-91
2023/07/06 10:36:59;;;;;;;1.65;1.35;;;;;;;24.29;100.00;100808.09;6147848;28;20050;-92
2023/07/06 10:40:21;;;;;;;3.65;1.15;;;;;;;24.24;100.00;100808.69;6157314;28;20074;-92
2023/07/06 10:43:23;;;;;;;4.68;1.40;;;;;;;23.75;100.00;100811.72;6148209;28;20390;-92
2023/07/06 10:46:36;;;;;;;4.70;1.50;;;;;;;23.57;100.00;100813.06;6146661;28;20128;-91
2023/07/06 10:50:15;;;;;;;4.35;1.23;;;;;;;23.82;96.77;100821.28;6148097;28;20043;-91
2023/07/06 10:53:32;;;;;;;2.25;1.10;;;;;;;23.92;96.31;100820.09;6139411;28;20533;-91
2023/07/06 10:56:45;;;;;;;1.90;1.30;;;;;;;24.14;97.42;100808.28;6149164;28;20122;-93
2023/07/06 10:59:54;;;;;;;2.35;1.30;;;;;;;24.32;94.75;100818.25;6143327;28;20166;-92
2023/07/06 11:02:56;;;;;;;2.72;1.33;;;;;;;24.39;89.24;100808.47;6142323;28;20906;-91
2023/07/06 11:06:08;;;;;;;3.25;1.30;;;;;;;24.40;95.19;100817.25;6146799;28;20039;-93
2023/07/06 11:09:13;;;;;;;3.60;1.40;;;;;;;24.27;100.00;100800.38;6165498;28;20531;-93
2023/07/06 11:12:19;;;;;;;2.95;1.52;;;;;;;24.17;100.00;100815.00;6136069;28;20058;-92
2023/07/06 11:15:35;;;;;;;1.70;1.17;;;;;;;24.04;90.20;100815.81;6142277;28;20047;-93
2023/07/06 11:18:39;;;;;;;2.70;1.08;;;;;;;23.88;97.05;100816.25;6144666;28;20051;-93
2023/07/06 11:21:47;;;;;;;2.55;1.52;;;;;;;23.99;100.00;100824.38;6142253;28;20039;-93
2023/07/06 11:24:54;;;;;;;2.08;1.10;;;;;;;24.16;100.00;100829.25;6143744;28;20170;-93
2023/07/06 11:28:05;;;;;;;2.33;1.38;;;;;;;24.31;98.62;100816.63;6143395;28;20493;-93
2023/07/06 11:31:51;;;;;;;3.13;1.30;;;;;;;24.36;95.12;100826.63;6143352;28;20043;-93
2023/07/06 11:35:24;;;;;;;3.50;1.63;;;;;;;24.14;94.50;100831.28;6144311;28;20059;-93
2023/07/06 11:38:49;;;;;;;1.42;1.30;;;;;;;24.26;99.57;100830.47;6143425;28;20175;-92
2023/07/06 11:41:56;;;;;;;3.20;1.40;;;;;;;24.18;89.73;100832.53;6147244;28;20359;-93
2023/07/06 11:45:24;;;;;;;2.28;1.50;;;;;;;24.35;96.52;100830.25;6133907;28;20039;-93
2023/07/06 11:48:49;;;;;;;1.70;1.30;;;;;;;24.32;90.80;100826.19;6083646;29;20119;-91
2023/07/06 11:51:51;;;;;;;3.35;1.40;;;;;;;24.34;95.26;100826.81;6092103;29;20059;-90
2023/07/06 11:55:29;;;;;;;2.45;1.20;;;;;;;24.05;92.52;100836.00;6076390;29;20200;-92
2023/07/06 11:58:54;;;;;;;3.97;1.95;;;;;;;24.40;93.47;100831.31;6091136;29;20064;-90
2023/07/06 12:02:03;;;;;;;2.70;1.23;;;;;;;24.40;91.39;100841.06;6091259;29;20139;-90
2023/07/06 12:05:24;;;;;;;1.75;1.35;;;;;;;24.62;91.29;100834.56;6091082;29;20062;-93
2023/07/06 12:08:27;;;;;;;;;;;;;;;24.98;89.72;100837.72;6092023;29;20047;-93
2023/07/06 12:11:30;;;;;;;3.63;1.35;;;;;;;25.32;85.09;100847.22;6090803;29;20547;-93
2023/07/06 12:14:34;;;;;;;2.13;1.20;;;;;;;25.72;84.26;100844.34;6091791;29;20365;-93
2023/07/06 12:17:36;;;;;;;2.92;1.33;;;;;;;25.56;87.06;100835.88;6091613;29;20164;-89
2023/07/06 12:20:38;;;;;;;2.10;1.52;;;;;;;25.42;83.69;100839.63;6090877;29;20176;-90
2023/07/06 12:23:40;;;;;;;3.17;1.20;;;;;;;25.82;83.28;100842.03;6090903;29;20052;-92
2023/07/06 12:26:48;;;;;;;3.13;1.42;;;;;;;25.81;83.46;100834.28;6141063;28;20087;-91
2023/07/06 12:30:03;;;;;;;2.45;1.30;;;;;;;25.22;89.34;100833.59;6140485;28;20039;-92
2023/07/06 12:33:22;;;;;;;3.70;1.73;;;;;;;24.53;88.99;100837.63;6140387;28;20050;-92
2023/07/06 12:36:33;;;;;;;2.05;1.42;;;;;;;24.18;92.28;100838.63;6151959;28;20047;-90
2023/07/06 12:39:42;;;;;;;2.38;1.52;;;;;;;23.82;92.27;100836.34;6137629;28;20521;-90
2023/07/06 12:42:44;;;;;;;2.13;1.40;;;;;;;23.30;100.00;100837.78;6123541;28;20062;-91
2023/07/06 12:45:46;;;;;;;2.75;1.40;;;;;;;23.37;100.00;100846.56;6133399;28;20425;-90
2023/07/06 12:48:52;;;;;;;2.65;1.40;;;;;;;23.32;100.00;100844.50;6136223;28;20342;-92
2023/07/06 12:51:56;;;;;;;2.38;1.25;;;;;;;23.78;100.00;100838.59;6133079;28;20051;-91
2023/07/06 12:54:58;;;;;;;1.50;1.40;;;;;;;24.60;100.00;100835.78;6141406;28;20122;-93
2023/07/06 12:58:27;;;;;;;2.00;1.27;;;;;;;25.42;91.30;100834.31;6147450;28;21247;-92
2023/07/06 13:01:37;;;;;;;1.73;1.30;;;;;;;25.77;91.51;100836.56;6136869;28;20125;-91
2023/07/06 13:04:47;;;;;;;;;;;;;;;26.54;87.64;100839.09;6136160;28;20981;-91
2023/07/06 13:07:52;;;;;;;;;;;;;;;26.78;79.05;100842.69;6151316;28;19933;-92
2023/07/06 13:11:07;;;;;;;2.00;1.48;;;;;;;26.97;80.42;100838.22;6140328;28;19949;-93
2023/07/06 13:14:08;;;;;;;1.63;1.23;;;;;;;26.77;76.84;100835.78;6132107;28;20047;-93
2023/07/06 13:17:27;;;;;;;2.58;1.30;;;;;;;26.00;78.33;100833.38;6140858;28;20406;-93
2023/07/06 13:20:31;;;;;;;3.58;1.95;;;;;;;25.54;81.34;100835.28;6137605;28;20046;-91
2023/07/06 13:23:33;;;;;;;2.35;1.35;;;;;;;25.68;81.82;100832.53;6148069;28;20055;-93
2023/07/06 13:26:36;;;;;;;5.78;1.30;;;;;;;26.06;77.72;100826.38;6139217;28;20039;-89
2023/07/06 13:29:38;;;;;;;3.40;1.33;;;;;;;26.16;81.14;100827.53;6117378;28;20042;-92
2023/07/06 13:32:41;;;;;;;1.67;1.40;;;;;;;26.37;84.71;100830.81;6143005;28;20182;-90
2023/07/06 13:35:44;;;;;;;4.20;1.40;;;;;;;26.69;75.75;100830.75;6139218;28;20518;-93
2023/07/06 13:38:47;;;;;;;2.30;1.27;;;;;;;26.92;67.23;100833.56;6145195;28;20141;-91
2023/07/06 13:41:49;;;;;;;1.92;1.30;;;;;;;26.93;65.91;100827.22;6133722;28;20050;-91
2023/07/06 13:44:52;;;;;;;4.07;1.10;;;;;;;26.66;66.83;100823.22;6132999;28;20134;-93
2023/07/06 13:47:56;;;;;;;2.70;1.30;;;;;;;27.09;68.07;100831.13;6131586;28;20066;-93
2023/07/06 13:50:58;;;;;;;1.70;1.17;;;;;;;27.71;62.35;100831.75;6138572;28;20314;-93
2023/07/06 13:54:00;;;;;;;2.67;1.33;;;;;;;28.14;69.12;100827.22;6141823;28;20402;-94
2023/07/06 13:57:02;;;;;;;2.63;1.42;;;;;;;28.78;69.87;100838.78;6141942;28;20047;-93
2023/07/06 14:00:05;;;;;;;2.15;1.40;;;;;;;29.14;57.72;100838.72;6142702;28;20071;-94
2023/07/06 14:03:18;;;;;;;3.17;1.27;;;;;;;28.39;64.73;100826.19;6145142;28;20059;-93
2023/07/06 14:06:20;;;;;;;2.15;1.20;;;;;;;27.83;62.50;100837.13;6137045;28;20612;-95
2023/07/06 14:09:21;;;;;;;1.88;1.20;;;;;;;27.26;62.00;100834.00;6139637;28;20070;-92
2023/07/06 14:12:23;;;;;;;2.20;1.50;;;;;;;26.93;72.58;100829.06;6137855;28;20410;-92
2023/07/06 14:15:25;;;;;;;1.88;1.50;;;;;;;26.41;73.89;100832.03;6144070;28;20596;-92
2023/07/06 14:18:28;;;;;;;2.55;1.42;;;;;;;25.74;75.23;100839.66;6142164;28;20043;-91
2023/07/06 14:21:33;;;;;;;1.33;1.15;;;;;;;25.08;76.38;100830.97;6142883;28;20039;-93